createdAt,value
2019-05-17T00:03:37.449Z,13.62
2019-05-17T00:08:38.740Z,13.49
2019-05-17T00:13:40.141Z,13.43
2019-05-17T00:18:42.161Z,13.30
2019-05-17T00:23:43.455Z,13.27
2019-05-17T00:28:46.784Z,13.19
2019-05-17T00:33:47.094Z,13.16
2019-05-17T00:38:50.944Z,13.07
2019-05-17T00:43:48.921Z,13.01
2019-05-17T00:48:50.273Z,12.95
2019-05-17T00:53:51.669Z,12.84
2019-05-17T00:58:53.815Z,12.75
2019-05-17T01:03:57.075Z,12.71
2019-05-17T01:09:01.845Z,12.75
2019-05-17T01:13:58.830Z,12.70
2019-05-17T01:19:00.169Z,12.68
2019-05-17T01:24:01.550Z,12.55
2019-05-17T01:29:02.908Z,12.53
2019-05-17T01:34:04.281Z,12.62
2019-05-17T01:39:17.013Z,12.71
2019-05-17T01:44:07.485Z,12.67
2019-05-17T01:49:08.512Z,12.68
2019-05-17T01:54:09.815Z,12.61
2019-05-17T01:59:11.128Z,12.64
2019-05-17T02:04:13.361Z,12.70
2019-05-17T02:09:20.618Z,12.69
2019-05-17T02:14:16.661Z,12.67
2019-05-17T02:19:17.565Z,12.62
2019-05-17T02:24:18.946Z,12.58
2019-05-17T02:29:21.431Z,12.57
2019-05-17T02:34:23.219Z,12.42
2019-05-17T02:39:23.479Z,12.30
2019-05-17T02:44:24.604Z,12.34
2019-05-17T02:49:26.012Z,12.31
2019-05-17T02:54:28.143Z,12.25
2019-05-17T02:59:32.798Z,12.18
2019-05-17T03:04:32.705Z,12.11
2019-05-17T03:09:33.524Z,12.07
2019-05-17T03:14:33.861Z,12.05
2019-05-17T03:19:35.897Z,12.06
2019-05-17T03:24:37.309Z,12.11
2019-05-17T03:29:42.338Z,12.18
2019-05-17T03:34:44.927Z,12.18
2019-05-17T03:39:43.021Z,12.22
2019-05-17T03:44:44.460Z,12.16
2019-05-17T03:49:45.831Z,12.13
2019-05-17T03:54:47.161Z,12.12
2019-05-17T03:59:48.566Z,12.07
2019-05-17T04:04:52.665Z,12.07
2019-05-17T04:09:53.194Z,12.03
2019-05-17T04:14:53.543Z,12.06
2019-05-17T04:19:54.998Z,12.14
2019-05-17T04:24:57.252Z,12.22
2019-05-17T04:29:58.994Z,12.27
2019-05-17T04:35:03.874Z,12.40
2019-05-17T04:40:05.261Z,12.47
2019-05-17T04:45:07.087Z,12.57
2019-05-17T04:50:12.945Z,12.65
2019-05-17T04:55:13.324Z,12.65
2019-05-17T05:00:13.277Z,12.71
2019-05-17T05:05:15.188Z,12.78
2019-05-17T05:10:22.546Z,12.86
2019-05-17T05:15:34.907Z,12.91
2019-05-17T05:20:37.094Z,12.95
2019-05-17T05:25:38.883Z,13.13
2019-05-17T05:30:42.214Z,13.16
2019-05-17T05:35:43.000Z,13.20
2019-05-17T05:40:45.384Z,12.98
2019-05-17T05:45:47.372Z,13.32
2019-05-17T05:50:49.144Z,13.18
2019-05-17T05:55:51.834Z,13.04
2019-05-17T06:00:54.066Z,13.37
2019-05-17T06:05:57.685Z,13.77
2019-05-17T06:11:02.277Z,13.92
2019-05-17T06:16:02.975Z,14.04
2019-05-17T06:21:04.638Z,14.02
2019-05-17T06:26:06.381Z,13.95
2019-05-17T06:31:08.054Z,14.20
2019-05-17T06:36:13.507Z,14.33
2019-05-17T06:41:14.613Z,14.63
2019-05-17T06:46:17.408Z,14.64
2019-05-17T06:51:21.943Z,14.76
2019-05-17T06:56:22.963Z,14.75
2019-05-17T07:01:23.417Z,14.62
2019-05-17T07:06:25.022Z,14.93
2019-05-17T07:11:27.061Z,15.21
2019-05-17T07:16:30.058Z,14.89
2019-05-17T07:21:30.560Z,15.48
2019-05-17T07:26:33.835Z,15.82
2019-05-17T07:31:35.876Z,15.92
2019-05-17T07:36:41.216Z,15.87
2019-05-17T07:41:43.818Z,16.03
2019-05-17T07:46:51.695Z,16.30
2019-05-17T07:51:50.280Z,16.08
2019-05-17T07:56:52.820Z,16.38
2019-05-17T08:01:55.523Z,16.41
2019-05-17T08:06:59.829Z,16.39
2019-05-17T08:12:00.253Z,16.50
2019-05-17T08:17:02.557Z,16.84
2019-05-17T08:22:04.951Z,16.80
2019-05-17T08:27:07.034Z,16.98
2019-05-17T08:32:09.600Z,17.18
2019-05-17T08:37:11.015Z,17.13
2019-05-17T08:42:13.823Z,17.33
2019-05-17T08:47:16.820Z,17.67
2019-05-17T08:52:20.051Z,17.46
2019-05-17T08:57:21.494Z,17.72
2019-05-17T09:02:24.634Z,18.10
2019-05-17T09:07:26.887Z,18.20
2019-05-17T09:12:30.155Z,18.08
2019-05-17T09:17:32.217Z,17.93
2019-05-17T09:22:34.822Z,18.13
2019-05-17T09:27:36.600Z,18.47
2019-05-17T09:32:40.509Z,18.70
2019-05-17T09:37:41.700Z,18.70
2019-05-17T09:42:44.334Z,18.82
2019-05-17T09:47:50.344Z,18.91
2019-05-17T09:52:50.340Z,19.06
2019-05-17T09:57:55.030Z,19.06
2019-05-17T10:03:00.173Z,19.28
2019-05-17T10:08:01.930Z,19.16
2019-05-17T10:13:09.548Z,19.56
2019-05-17T10:18:11.348Z,19.58
2019-05-17T10:23:19.516Z,19.64
2019-05-17T10:28:20.479Z,19.72
2019-05-17T10:33:23.845Z,20.05
2019-05-17T10:38:29.954Z,20.03
2019-05-17T10:43:30.537Z,20.02
2019-05-17T10:48:32.978Z,20.31
2019-05-17T10:53:34.709Z,20.24
2019-05-17T10:58:36.844Z,20.44
2019-05-17T11:03:39.870Z,20.67
2019-05-17T11:08:42.020Z,20.76
2019-05-17T11:13:44.490Z,20.70
2019-05-17T11:18:46.278Z,21.14
2019-05-17T11:23:48.671Z,20.93
2019-05-17T11:28:51.427Z,21.03
2019-05-17T11:33:53.386Z,21.23
2019-05-17T11:38:55.261Z,21.39
2019-05-17T11:43:58.109Z,21.81
2019-05-17T11:49:00.906Z,21.99
2019-05-17T11:54:03.955Z,22.15
2019-05-17T11:59:06.205Z,22.33
2019-05-17T12:04:08.131Z,22.49
2019-05-17T12:09:10.295Z,22.96
2019-05-17T12:14:12.593Z,23.37
2019-05-17T12:19:14.698Z,23.61
2019-05-17T12:24:18.070Z,23.83
2019-05-17T12:29:20.179Z,23.92
2019-05-17T12:34:22.536Z,24.23
2019-05-17T12:39:24.629Z,23.95
2019-05-17T12:44:27.792Z,24.48
2019-05-17T12:49:31.520Z,25.11
2019-05-17T12:59:47.661Z,25.85
2019-05-17T13:04:49.667Z,25.46
2019-05-17T13:09:51.361Z,25.67
2019-05-17T13:14:53.328Z,25.98
2019-05-17T13:19:55.340Z,26.59
2019-05-17T13:24:57.423Z,26.78
2019-05-17T13:29:59.322Z,26.49
2019-05-17T13:35:05.514Z,25.90
2019-05-17T13:40:07.577Z,26.42
2019-05-17T13:45:09.586Z,26.46
2019-05-17T13:50:12.131Z,26.24
2019-05-17T13:55:14.195Z,25.82
2019-05-17T14:00:16.494Z,25.53
2019-05-17T14:05:17.901Z,25.43
2019-05-17T14:10:27.845Z,25.22
2019-05-17T14:15:22.115Z,25.29
2019-05-17T14:20:23.556Z,25.36
2019-05-17T14:25:25.211Z,26.84
2019-05-17T14:30:26.902Z,27.62
2019-05-17T14:35:28.698Z,27.58
2019-05-17T14:41:04.301Z,27.16
2019-05-17T14:45:32.282Z,26.24
2019-05-17T14:50:34.349Z,27.21
2019-05-17T14:55:43.938Z,28.20
2019-05-17T15:00:45.893Z,30.01
2019-05-17T15:05:47.740Z,29.70
2019-05-17T15:10:51.083Z,29.25
2019-05-17T15:16:33.067Z,28.92
2019-05-17T15:21:34.427Z,28.78
2019-05-17T15:26:38.675Z,28.73
2019-05-17T15:31:40.510Z,28.48
2019-05-17T15:36:42.403Z,28.02
2019-05-17T15:41:44.233Z,27.94
2019-05-17T15:46:45.785Z,27.72
2019-05-17T15:51:47.478Z,27.39
2019-05-17T15:56:50.198Z,26.99
2019-05-17T16:01:52.026Z,26.73
2019-05-17T16:06:53.687Z,26.57
2019-05-17T16:11:55.246Z,26.45
2019-05-17T16:16:57.034Z,26.39
2019-05-17T16:21:59.066Z,26.34
2019-05-17T16:27:00.959Z,25.26
2019-05-17T16:32:02.726Z,25.54
2019-05-17T16:37:04.621Z,25.45
2019-05-17T16:42:06.397Z,25.36
2019-05-17T16:47:08.577Z,25.22
2019-05-17T16:52:10.484Z,25.26
2019-05-17T16:57:12.402Z,25.32
2019-05-17T17:02:14.440Z,24.96
2019-05-17T17:07:16.015Z,25.15
2019-05-17T17:12:20.811Z,25.32
2019-05-17T17:17:22.926Z,25.77
2019-05-17T17:22:25.250Z,26.10
2019-05-17T17:27:27.794Z,25.89
2019-05-17T17:32:29.775Z,25.64
2019-05-17T17:37:34.538Z,25.05
2019-05-17T17:42:39.613Z,24.73
2019-05-17T17:47:43.052Z,24.58
2019-05-17T17:52:45.510Z,24.45
2019-05-17T17:57:48.705Z,24.11
2019-05-17T18:02:51.517Z,24.09
2019-05-17T18:07:54.104Z,23.94
2019-05-17T18:12:57.644Z,23.70
2019-05-17T18:17:59.724Z,23.60
2019-05-17T18:23:03.013Z,23.61
2019-05-17T18:28:05.814Z,23.56
2019-05-17T18:33:08.705Z,23.52
2019-05-17T18:38:10.755Z,23.46
2019-05-17T18:43:12.913Z,23.30
2019-05-17T18:48:14.933Z,23.23
2019-05-17T18:53:18.914Z,23.03
2019-05-17T18:58:25.582Z,23.00
2019-05-17T19:03:29.372Z,22.89
2019-05-17T19:08:32.931Z,22.92
2019-05-17T19:13:35.314Z,22.77
2019-05-17T19:18:39.615Z,22.75
2019-05-17T19:23:42.128Z,22.67
2019-05-17T19:28:47.196Z,22.51
2019-05-17T19:33:50.186Z,22.44
2019-05-17T19:38:54.221Z,22.32
2019-05-17T19:43:57.634Z,22.23
2019-05-17T19:48:59.567Z,22.08
2019-05-17T19:54:01.780Z,22.00
2019-05-17T19:59:04.831Z,21.82
2019-05-17T20:04:08.655Z,21.78
2019-05-17T20:09:11.417Z,21.75
2019-05-17T20:14:15.650Z,21.64
2019-05-17T20:19:18.138Z,21.48
2019-05-17T20:24:21.244Z,21.36
2019-05-17T20:29:24.854Z,21.31
2019-05-17T20:34:28.371Z,21.23
2019-05-17T20:44:51.685Z,21.02
2019-05-17T20:49:56.370Z,21.00
2019-05-17T20:55:01.248Z,20.83
2019-05-17T21:00:16.789Z,20.84
2019-05-17T21:05:26.535Z,20.76
2019-05-17T21:10:28.691Z,20.24
2019-05-17T21:15:30.128Z,20.32
2019-05-17T21:20:31.460Z,20.39
2019-05-17T21:25:32.860Z,20.42
2019-05-17T21:30:36.020Z,20.27
2019-05-17T21:35:43.411Z,19.71
2019-05-17T21:40:49.398Z,19.19
2019-05-17T21:51:18.254Z,18.83
2019-05-17T21:56:23.381Z,18.72
2019-05-17T22:01:28.934Z,18.55
2019-05-17T22:06:37.442Z,18.35
2019-05-17T22:11:40.990Z,18.35
2019-05-17T22:16:45.347Z,18.19
2019-05-17T22:21:47.626Z,18.51
2019-05-17T22:26:53.411Z,18.62
2019-05-17T22:32:02.110Z,18.48
2019-05-17T22:37:05.960Z,18.39
2019-05-17T22:42:08.561Z,18.32
2019-05-17T22:47:12.023Z,18.06
2019-05-17T22:52:14.317Z,18.31
2019-05-17T22:57:16.214Z,18.20
2019-05-17T23:02:19.531Z,18.18
2019-05-17T23:07:22.648Z,18.12
2019-05-17T23:17:38.328Z,18.25
2019-05-17T23:22:41.026Z,17.98
2019-05-17T23:27:43.774Z,17.97
2019-05-17T23:32:47.784Z,17.63
2019-05-17T23:37:53.954Z,17.69
2019-05-17T23:43:02.502Z,17.40
2019-05-17T23:48:07.288Z,17.49
2019-05-17T23:53:13.781Z,17.58
2019-05-17T23:58:24.125Z,17.79
